createdAt,value
2022-11-28T00:01:59.928Z,1.34
2022-11-28T00:04:31.594Z,1.16
2022-11-28T00:07:03.318Z,1.11
2022-11-28T00:09:35.128Z,1.00
2022-11-28T00:12:06.929Z,0.94
2022-11-28T00:14:38.541Z,0.93
2022-11-28T00:17:10.174Z,0.92
2022-11-28T00:19:41.849Z,0.90
2022-11-28T00:22:13.555Z,0.92
2022-11-28T00:24:45.311Z,0.87
2022-11-28T00:27:16.959Z,0.81
2022-11-28T00:29:48.581Z,0.80
2022-11-28T00:32:20.262Z,0.80
2022-11-28T00:34:52.099Z,0.82
2022-11-28T00:37:23.754Z,0.87
2022-11-28T00:39:55.363Z,0.87
2022-11-28T00:42:29.431Z,0.86
2022-11-28T00:45:01.084Z,0.81
2022-11-28T00:47:35.553Z,0.73
2022-11-28T00:50:07.748Z,0.69
2022-11-28T00:52:39.759Z,0.71
2022-11-28T00:55:11.373Z,0.69
2022-11-28T00:57:43.011Z,0.70
2022-11-28T01:00:15.251Z,0.72
2022-11-28T01:02:47.046Z,0.72
2022-11-28T01:05:18.701Z,0.75
2022-11-28T01:07:53.565Z,0.77
2022-11-28T01:10:25.582Z,0.78
2022-11-28T01:13:00.546Z,0.77
2022-11-28T01:15:32.207Z,0.75
2022-11-28T01:18:03.954Z,0.73
2022-11-28T01:20:37.046Z,0.70
2022-11-28T01:23:08.785Z,0.70
2022-11-28T01:25:40.392Z,0.67
2022-11-28T01:28:12.019Z,0.65
2022-11-28T01:30:43.606Z,0.67
2022-11-28T01:33:15.330Z,0.68
2022-11-28T01:35:57.628Z,0.66
2022-11-28T01:38:29.446Z,0.66
2022-11-28T01:41:01.757Z,0.70
2022-11-28T01:43:34.416Z,0.71
2022-11-28T01:46:06.721Z,0.74
2022-11-28T01:48:41.926Z,0.82
2022-11-28T01:51:13.916Z,0.84
2022-11-28T01:53:49.543Z,0.86
2022-11-28T01:56:25.831Z,0.90
2022-11-28T01:59:02.545Z,0.89
2022-11-28T02:01:34.459Z,0.92
2022-11-28T02:04:06.553Z,0.94
2022-11-28T02:06:38.116Z,0.96
2022-11-28T02:09:12.926Z,0.96
2022-11-28T02:11:57.066Z,0.96
2022-11-28T02:14:45.595Z,0.95
2022-11-28T02:17:38.877Z,0.97
2022-11-28T02:20:29.348Z,0.92
2022-11-28T02:23:38.640Z,0.92
2022-11-28T02:26:45.547Z,0.98
2022-11-28T02:29:35.840Z,1.01
2022-11-28T02:32:07.436Z,1.02
2022-11-28T02:34:56.670Z,1.05
2022-11-28T02:38:03.003Z,1.03
2022-11-28T02:40:53.223Z,1.06
2022-11-28T02:43:51.169Z,1.07
2022-11-28T02:46:32.359Z,1.09
2022-11-28T02:49:06.772Z,1.09
2022-11-28T02:51:46.959Z,1.11
2022-11-28T02:54:20.891Z,1.11
2022-11-28T02:56:54.662Z,1.04
2022-11-28T02:59:46.767Z,1.01
2022-11-28T03:02:25.440Z,1.00
2022-11-28T03:05:20.960Z,1.01
2022-11-28T03:08:00.934Z,1.03
2022-11-28T03:10:51.967Z,1.03
2022-11-28T03:13:38.560Z,1.02
2022-11-28T03:16:34.916Z,1.03
2022-11-28T03:19:24.650Z,1.04
2022-11-28T03:22:41.061Z,1.03
2022-11-28T03:25:25.740Z,1.01
2022-11-28T03:28:12.411Z,0.97
2022-11-28T03:30:53.969Z,0.93
2022-11-28T03:33:31.236Z,0.95
2022-11-28T03:36:14.640Z,0.97
2022-11-28T03:38:51.115Z,0.99
2022-11-28T03:41:39.658Z,0.99
2022-11-28T03:44:21.004Z,0.97
2022-11-28T03:46:56.541Z,0.97
2022-11-28T03:49:35.001Z,0.99
2022-11-28T03:52:23.666Z,0.99
2022-11-28T03:55:06.848Z,1.00
2022-11-28T03:58:03.211Z,0.99
2022-11-28T04:00:42.134Z,0.99
2022-11-28T04:03:31.860Z,1.04
2022-11-28T04:06:26.088Z,1.10
2022-11-28T04:09:02.503Z,1.12
2022-11-28T04:11:49.776Z,1.14
2022-11-28T04:14:37.375Z,1.12
2022-11-28T04:17:34.077Z,1.17
2022-11-28T04:20:24.647Z,1.23
2022-11-28T04:23:02.543Z,1.26
2022-11-28T04:25:37.532Z,1.26
2022-11-28T04:28:16.533Z,1.31
2022-11-28T04:30:50.173Z,1.34
2022-11-28T04:33:24.047Z,1.42
2022-11-28T04:35:56.937Z,1.44
2022-11-28T04:38:30.007Z,1.46
2022-11-28T04:41:10.849Z,1.52
2022-11-28T04:43:48.718Z,1.56
2022-11-28T04:46:36.256Z,1.58
2022-11-28T04:49:07.899Z,1.65
2022-11-28T04:52:14.971Z,1.70
2022-11-28T04:55:01.325Z,1.70
2022-11-28T04:57:38.207Z,1.74
2022-11-28T05:00:13.416Z,1.74
2022-11-28T05:02:47.867Z,1.76
2022-11-28T05:05:23.598Z,1.80
2022-11-28T05:07:55.338Z,1.85
2022-11-28T05:10:27.086Z,1.87
2022-11-28T05:12:58.662Z,1.91
2022-11-28T05:15:30.415Z,1.95
2022-11-28T05:18:02.308Z,1.97
2022-11-28T05:20:35.009Z,2.02
2022-11-28T05:23:06.801Z,2.06
2022-11-28T05:25:40.037Z,2.11
2022-11-28T05:28:11.704Z,2.14
2022-11-28T05:30:43.335Z,2.14
2022-11-28T05:33:15.004Z,2.15
2022-11-28T05:35:46.626Z,2.18
2022-11-28T05:38:18.306Z,2.16
2022-11-28T05:40:50.906Z,2.14
2022-11-28T05:43:22.466Z,2.13
2022-11-28T05:45:55.001Z,2.11
2022-11-28T05:48:26.652Z,2.14
2022-11-28T05:50:58.368Z,2.13
2022-11-28T05:53:29.988Z,2.16
2022-11-28T05:56:13.666Z,2.22
2022-11-28T05:58:46.011Z,2.27
2022-11-28T06:01:20.820Z,2.27
2022-11-28T06:03:58.204Z,2.30
2022-11-28T06:06:33.074Z,2.31
2022-11-28T06:09:06.083Z,2.33
2022-11-28T06:11:37.734Z,2.36
2022-11-28T06:14:10.742Z,2.39
2022-11-28T06:16:43.653Z,2.43
2022-11-28T06:19:15.440Z,2.46
2022-11-28T06:21:50.272Z,2.49
2022-11-28T06:24:21.936Z,2.48
2022-11-28T06:26:53.707Z,2.50
2022-11-28T06:29:25.389Z,2.52
2022-11-28T06:31:57.282Z,2.55
2022-11-28T06:34:29.030Z,2.57
2022-11-28T06:37:00.768Z,2.62
2022-11-28T06:39:32.610Z,2.63
2022-11-28T06:42:04.482Z,2.67
2022-11-28T06:44:36.085Z,2.67
2022-11-28T06:47:08.779Z,2.69
2022-11-28T06:49:40.736Z,2.70
2022-11-28T06:52:12.706Z,2.71
2022-11-28T06:54:44.726Z,2.73
2022-11-28T06:57:22.371Z,2.73
2022-11-28T06:59:54.097Z,2.74
2022-11-28T07:02:28.706Z,2.75
2022-11-28T07:05:00.401Z,2.78
2022-11-28T07:07:45.653Z,2.80
2022-11-28T07:10:28.044Z,2.87
2022-11-28T07:13:05.093Z,2.91
2022-11-28T07:15:37.079Z,2.89
2022-11-28T07:18:08.821Z,2.91
2022-11-28T07:20:40.505Z,2.95
2022-11-28T07:23:12.095Z,2.96
2022-11-28T07:25:43.719Z,2.98
2022-11-28T07:28:18.436Z,3.02
2022-11-28T07:31:02.693Z,3.04
2022-11-28T07:33:37.848Z,3.07
2022-11-28T07:36:15.528Z,3.13
2022-11-28T07:38:52.854Z,3.16
2022-11-28T07:41:26.902Z,3.20
2022-11-28T07:44:04.347Z,3.24
2022-11-28T07:46:39.016Z,3.28
2022-11-28T07:49:11.757Z,3.28
2022-11-28T07:51:43.549Z,3.24
2022-11-28T07:54:18.648Z,3.26
2022-11-28T07:57:12.432Z,3.22
2022-11-28T07:59:45.244Z,3.20
2022-11-28T08:02:20.058Z,3.24
2022-11-28T08:04:55.267Z,3.26
2022-11-28T08:07:27.135Z,3.26
2022-11-28T08:09:58.946Z,3.27
2022-11-28T08:12:30.670Z,3.25
2022-11-28T08:15:05.056Z,3.28
2022-11-28T08:17:38.294Z,3.30
2022-11-28T08:20:10.413Z,3.30
2022-11-28T08:22:44.904Z,3.30
2022-11-28T08:25:16.525Z,3.26
2022-11-28T08:27:51.024Z,3.31
2022-11-28T08:30:22.940Z,3.36
2022-11-28T08:32:54.617Z,3.42
2022-11-28T08:35:26.268Z,3.38
2022-11-28T08:38:01.761Z,3.38
2022-11-28T08:40:36.884Z,3.42
2022-11-28T08:43:09.797Z,3.46
2022-11-28T08:45:41.559Z,3.49
2022-11-28T08:48:15.419Z,3.49
2022-11-28T08:50:52.892Z,3.54
2022-11-28T08:53:24.578Z,3.53
2022-11-28T08:55:59.012Z,3.50
2022-11-28T08:58:33.790Z,3.46
2022-11-28T09:01:14.879Z,3.47
2022-11-28T09:03:50.914Z,3.52
2022-11-28T09:09:15.945Z,3.62
2022-11-28T09:11:54.577Z,3.60
2022-11-28T09:14:27.662Z,3.63
2022-11-28T09:17:05.776Z,3.63
2022-11-28T09:19:37.480Z,3.70
2022-11-28T09:22:09.133Z,3.71
2022-11-28T09:24:40.756Z,3.80
2022-11-28T09:27:13.505Z,3.78
2022-11-28T09:29:47.559Z,3.79
2022-11-28T09:32:19.363Z,3.82
2022-11-28T09:34:52.410Z,3.87
2022-11-28T09:37:24.208Z,3.95
2022-11-28T09:40:12.805Z,3.97
2022-11-28T09:42:47.091Z,4.02
2022-11-28T09:45:25.154Z,4.06
2022-11-28T09:48:34.252Z,4.10
2022-11-28T09:51:58.567Z,4.15
2022-11-28T09:54:47.190Z,4.26
2022-11-28T09:57:40.289Z,4.27
2022-11-28T10:00:22.866Z,4.33
2022-11-28T10:03:44.875Z,4.34
2022-11-28T10:06:41.903Z,4.42
2022-11-28T10:09:32.572Z,4.52
2022-11-28T10:12:43.922Z,4.56
2022-11-28T10:15:54.970Z,4.60
2022-11-28T10:18:45.151Z,4.54
2022-11-28T10:21:33.253Z,4.52
2022-11-28T10:24:16.390Z,4.55
2022-11-28T10:26:51.968Z,4.58
2022-11-28T10:29:44.723Z,4.59
2022-11-28T10:32:33.576Z,4.62
2022-11-28T10:35:31.832Z,4.68
2022-11-28T10:38:10.373Z,4.76
2022-11-28T10:40:55.994Z,4.85
2022-11-28T10:43:39.512Z,4.85
2022-11-28T10:46:48.751Z,4.81
2022-11-28T10:49:26.547Z,4.74
2022-11-28T10:52:04.278Z,4.78
2022-11-28T10:54:59.975Z,4.89
2022-11-28T10:58:21.194Z,4.89
2022-11-28T11:00:57.866Z,4.95
2022-11-28T11:03:35.894Z,5.00
2022-11-28T11:06:08.272Z,5.05
2022-11-28T11:08:41.668Z,5.05
2022-11-28T11:11:30.541Z,5.01
2022-11-28T11:14:05.469Z,4.99
2022-11-28T11:16:55.494Z,5.01
2022-11-28T11:19:41.967Z,5.07
2022-11-28T11:22:24.705Z,5.13
2022-11-28T11:25:12.318Z,5.14
2022-11-28T11:27:53.193Z,5.16
2022-11-28T11:30:26.064Z,5.22
2022-11-28T11:33:12.419Z,5.18
2022-11-28T11:35:49.453Z,5.08
2022-11-28T11:38:21.001Z,5.09
2022-11-28T11:40:55.764Z,5.07
2022-11-28T11:43:43.293Z,5.05
2022-11-28T11:46:17.225Z,5.06
2022-11-28T11:49:01.431Z,5.02
2022-11-28T11:51:39.122Z,4.99
2022-11-28T11:54:19.186Z,4.98
2022-11-28T11:57:05.745Z,4.89
2022-11-28T11:59:49.916Z,4.90
2022-11-28T12:02:34.351Z,4.87
2022-11-28T12:05:19.031Z,4.89
2022-11-28T12:08:07.773Z,4.91
2022-11-28T12:10:53.539Z,4.97
2022-11-28T12:13:28.072Z,5.03
2022-11-28T12:16:14.770Z,5.07
2022-11-28T12:19:18.234Z,5.06
2022-11-28T12:22:24.968Z,5.10
2022-11-28T12:25:11.652Z,5.19
2022-11-28T12:28:17.542Z,5.29
2022-11-28T12:31:03.501Z,5.36
2022-11-28T12:33:54.972Z,5.39
2022-11-28T12:37:06.252Z,5.41
2022-11-28T12:39:51.287Z,5.40
2022-11-28T12:42:41.346Z,5.39
2022-11-28T12:45:41.901Z,5.44
2022-11-28T12:48:34.759Z,5.46
2022-11-28T12:51:15.138Z,5.44
2022-11-28T12:54:10.279Z,5.47
2022-11-28T12:56:50.223Z,5.45
2022-11-28T13:00:15.260Z,5.43
2022-11-28T13:03:10.776Z,5.46
2022-11-28T13:05:42.350Z,5.50
2022-11-28T13:08:51.577Z,5.52
2022-11-28T13:11:56.652Z,5.59
2022-11-28T13:14:37.231Z,5.65
2022-11-28T13:17:23.208Z,5.68
2022-11-28T13:20:08.432Z,5.69
2022-11-28T13:22:56.275Z,5.72
2022-11-28T13:26:02.654Z,5.74
2022-11-28T13:29:25.522Z,5.76
2022-11-28T13:32:19.430Z,5.69
2022-11-28T13:34:51.999Z,5.65
2022-11-28T13:41:22.819Z,5.63
2022-11-28T13:44:09.807Z,5.60
2022-11-28T13:46:46.165Z,5.57
2022-11-28T13:49:37.118Z,5.58
2022-11-28T13:52:19.019Z,5.60
2022-11-28T13:54:50.957Z,5.60
2022-11-28T13:57:39.898Z,5.61
2022-11-28T14:00:19.205Z,5.61
2022-11-28T14:02:59.093Z,5.61
2022-11-28T14:05:41.661Z,5.62
2022-11-28T14:08:35.170Z,5.64
2022-11-28T14:11:48.816Z,5.67
2022-11-28T14:14:36.100Z,5.70
2022-11-28T14:17:29.368Z,5.67
2022-11-28T14:20:30.716Z,5.68
2022-11-28T14:23:36.656Z,5.69
2022-11-28T14:26:31.104Z,5.70
2022-11-28T14:29:12.720Z,5.72
2022-11-28T14:32:06.520Z,5.71
2022-11-28T14:34:46.249Z,5.69
2022-11-28T14:37:59.775Z,5.68
2022-11-28T14:40:54.922Z,5.68
2022-11-28T14:43:37.368Z,5.71
2022-11-28T14:46:15.192Z,5.75
2022-11-28T14:48:59.391Z,5.75
2022-11-28T14:51:51.548Z,5.78
2022-11-28T14:54:43.872Z,5.77
2022-11-28T14:57:24.069Z,5.74
2022-11-28T15:00:04.208Z,5.72
2022-11-28T15:02:58.557Z,5.74
2022-11-28T15:05:43.632Z,5.75
2022-11-28T15:08:38.132Z,5.76
2022-11-28T15:11:35.345Z,5.77
2022-11-28T15:14:20.786Z,5.77
2022-11-28T15:17:06.963Z,5.77
2022-11-28T15:19:49.723Z,5.77
2022-11-28T15:22:29.740Z,5.75
2022-11-28T15:25:01.915Z,5.71
2022-11-28T15:27:35.693Z,5.70
2022-11-28T15:30:29.368Z,5.70
2022-11-28T15:33:03.792Z,5.70
2022-11-28T15:35:37.773Z,5.70
2022-11-28T15:38:14.979Z,5.70
2022-11-28T15:40:51.671Z,5.65
2022-11-28T15:43:24.833Z,5.63
2022-11-28T15:46:01.878Z,5.61
2022-11-28T15:51:53.372Z,5.59
2022-11-28T15:54:36.364Z,5.60
2022-11-28T15:57:23.801Z,5.54
2022-11-28T15:59:57.202Z,5.55
2022-11-28T16:02:35.557Z,5.57
2022-11-28T16:05:16.461Z,5.60
2022-11-28T16:07:54.391Z,5.62
2022-11-28T16:10:32.631Z,5.64
2022-11-28T16:13:20.918Z,5.64
2022-11-28T16:15:55.680Z,5.64
2022-11-28T16:18:31.200Z,5.64
2022-11-28T16:21:04.365Z,5.64
2022-11-28T16:23:38.216Z,5.62
2022-11-28T16:26:26.696Z,5.52
2022-11-28T16:29:10.030Z,5.47
2022-11-28T16:31:44.415Z,5.47
2022-11-28T16:34:16.840Z,5.42
2022-11-28T16:36:50.595Z,5.34
2022-11-28T16:39:26.781Z,5.34
2022-11-28T16:42:12.500Z,5.36
2022-11-28T16:44:46.341Z,5.40
2022-11-28T16:47:27.164Z,5.40
2022-11-28T16:50:19.522Z,5.43
2022-11-28T16:52:55.724Z,5.42
2022-11-28T16:55:27.298Z,5.43
2022-11-28T16:58:11.496Z,5.45
2022-11-28T17:00:47.803Z,5.44
2022-11-28T17:03:52.690Z,5.43
2022-11-28T17:06:33.986Z,5.42
2022-11-28T17:09:09.907Z,5.44
2022-11-28T17:11:45.309Z,5.46
2022-11-28T17:14:21.800Z,5.47
2022-11-28T17:16:56.202Z,5.47
2022-11-28T17:19:30.546Z,5.47
2022-11-28T17:22:06.361Z,5.51
2022-11-28T17:24:37.994Z,5.52
2022-11-28T17:27:12.466Z,5.51
2022-11-28T17:29:47.581Z,5.53
2022-11-28T17:32:19.202Z,5.54
2022-11-28T17:34:50.861Z,5.53
2022-11-28T17:37:22.457Z,5.52
2022-11-28T17:40:20.200Z,5.47
2022-11-28T17:42:51.799Z,5.43
2022-11-28T17:45:27.496Z,5.39
2022-11-28T17:48:02.160Z,5.38
2022-11-28T17:50:35.019Z,5.37
2022-11-28T17:53:07.315Z,5.39
2022-11-28T17:55:41.282Z,5.42
2022-11-28T17:58:21.839Z,5.46
2022-11-28T18:01:00.228Z,5.47
2022-11-28T18:03:32.834Z,5.49
2022-11-28T18:06:05.442Z,5.46
2022-11-28T18:08:44.679Z,5.43
2022-11-28T18:11:20.287Z,5.32
2022-11-28T18:13:53.462Z,5.22
2022-11-28T18:16:29.872Z,5.22
2022-11-28T18:19:03.787Z,5.19
2022-11-28T18:21:35.603Z,5.14
2022-11-28T18:24:13.038Z,5.14
2022-11-28T18:26:45.940Z,5.15
2022-11-28T18:29:17.554Z,5.15
2022-11-28T18:31:49.553Z,5.14
2022-11-28T18:34:21.244Z,5.15
2022-11-28T18:37:00.700Z,5.13
2022-11-28T18:39:37.835Z,5.13
2022-11-28T18:42:10.260Z,5.12
2022-11-28T18:44:43.908Z,5.09
2022-11-28T18:47:15.910Z,5.08
2022-11-28T18:49:47.691Z,5.09
2022-11-28T18:52:19.328Z,5.09
2022-11-28T18:54:53.029Z,5.10
2022-11-28T18:57:30.013Z,5.14
2022-11-28T19:00:08.094Z,5.10
2022-11-28T19:02:42.301Z,5.12
2022-11-28T19:05:17.049Z,5.10
2022-11-28T19:07:51.030Z,5.13
2022-11-28T19:10:23.235Z,5.14
2022-11-28T19:12:57.572Z,5.13
2022-11-28T19:15:29.580Z,5.13
2022-11-28T19:18:04.324Z,5.16
2022-11-28T19:20:41.241Z,5.20
2022-11-28T19:23:12.867Z,5.22
2022-11-28T19:25:47.373Z,5.23
2022-11-28T19:28:21.957Z,5.21
2022-11-28T19:30:54.270Z,5.22
2022-11-28T19:33:29.144Z,5.22
2022-11-28T19:36:09.188Z,5.23
2022-11-28T19:38:41.859Z,5.22
2022-11-28T19:41:22.119Z,5.16
2022-11-28T19:44:24.702Z,5.16
2022-11-28T19:47:04.272Z,5.14
2022-11-28T19:49:35.979Z,5.11
2022-11-28T19:52:09.983Z,5.12
2022-11-28T19:54:41.953Z,5.19
2022-11-28T19:57:16.552Z,5.25
2022-11-28T19:59:48.362Z,5.32
2022-11-28T20:02:30.226Z,5.38
2022-11-28T20:05:02.312Z,5.43
2022-11-28T20:07:34.006Z,5.45
2022-11-28T20:10:06.998Z,5.49
2022-11-28T20:12:40.223Z,5.52
2022-11-28T20:15:18.331Z,5.56
2022-11-28T20:17:50.700Z,5.57
2022-11-28T20:20:23.774Z,5.57
2022-11-28T20:22:57.536Z,5.57
2022-11-28T20:25:29.165Z,5.57
2022-11-28T20:28:03.401Z,5.54
2022-11-28T20:30:36.761Z,5.51
2022-11-28T20:33:08.416Z,5.52
2022-11-28T20:35:40.087Z,5.49
2022-11-28T20:38:15.060Z,5.47
2022-11-28T20:40:46.588Z,5.46
2022-11-28T20:43:18.247Z,5.47
2022-11-28T20:45:50.009Z,5.50
2022-11-28T20:48:21.637Z,5.52
2022-11-28T20:50:53.292Z,5.54
2022-11-28T20:53:27.088Z,5.51
2022-11-28T20:56:05.779Z,5.44
2022-11-28T20:58:37.545Z,5.42
2022-11-28T21:01:17.261Z,5.36
2022-11-28T21:03:51.981Z,5.36
2022-11-28T21:06:23.688Z,5.41
2022-11-28T21:08:56.645Z,5.40
2022-11-28T21:11:55.603Z,5.45
2022-11-28T21:14:23.243Z,5.44
2022-11-28T21:16:55.630Z,5.41
2022-11-28T21:19:27.692Z,5.43
2022-11-28T21:22:00.024Z,5.43
2022-11-28T21:24:31.718Z,5.43
2022-11-28T21:27:03.848Z,5.41
2022-11-28T21:29:35.437Z,5.37
2022-11-28T21:32:12.172Z,5.39
2022-11-28T21:34:46.814Z,5.40
2022-11-28T21:37:18.466Z,5.36
2022-11-28T21:39:50.119Z,5.34
2022-11-28T21:42:21.892Z,5.31
2022-11-28T21:44:53.523Z,5.32
2022-11-28T21:47:27.136Z,5.30
2022-11-28T21:49:59.080Z,5.24
2022-11-28T21:52:33.218Z,5.23
2022-11-28T21:55:05.398Z,5.22
2022-11-28T21:57:42.245Z,5.09
2022-11-28T22:00:38.621Z,5.04
2022-11-28T22:03:13.913Z,5.01
2022-11-28T22:05:46.585Z,5.05
2022-11-28T22:08:21.729Z,5.00
2022-11-28T22:10:53.746Z,5.00
2022-11-28T22:13:25.296Z,5.02
2022-11-28T22:16:01.044Z,5.02
2022-11-28T22:18:32.785Z,5.06
2022-11-28T22:21:22.317Z,5.01
2022-11-28T22:23:59.845Z,5.03
2022-11-28T22:26:35.081Z,5.06
2022-11-28T22:29:15.302Z,5.06
2022-11-28T22:31:47.766Z,5.07
2022-11-28T22:34:22.377Z,5.10
2022-11-28T22:36:57.255Z,5.10
2022-11-28T22:39:28.784Z,5.14
2022-11-28T22:42:00.451Z,5.13
2022-11-28T22:44:32.260Z,5.14
2022-11-28T22:47:04.281Z,5.13
2022-11-28T22:49:38.590Z,5.11
2022-11-28T22:52:12.160Z,5.13
2022-11-28T22:54:44.189Z,5.18
2022-11-28T22:57:16.898Z,5.16
2022-11-28T22:59:49.077Z,5.18
2022-11-28T23:02:21.169Z,5.21
2022-11-28T23:04:55.875Z,5.24
2022-11-28T23:07:27.572Z,5.24
2022-11-28T23:09:59.910Z,5.21
2022-11-28T23:12:31.636Z,5.25
2022-11-28T23:15:06.290Z,5.26
2022-11-28T23:17:38.043Z,5.26
2022-11-28T23:20:10.532Z,5.27
2022-11-28T23:22:44.587Z,5.30
2022-11-28T23:25:16.353Z,5.30
2022-11-28T23:27:48.146Z,5.31
2022-11-28T23:30:19.856Z,5.35
2022-11-28T23:32:52.203Z,5.38
2022-11-28T23:35:23.799Z,5.35
2022-11-28T23:37:55.396Z,5.34
2022-11-28T23:40:28.661Z,5.36
2022-11-28T23:43:00.419Z,5.36
2022-11-28T23:45:32.072Z,5.42
2022-11-28T23:48:05.186Z,5.40
2022-11-28T23:50:36.733Z,5.39
2022-11-28T23:53:11.020Z,5.42
2022-11-28T23:55:42.602Z,5.43
2022-11-28T23:58:15.394Z,5.38
